sensor_id;sensor_type;location;lat;lon;timestamp;pressure;altitude;pressure_sealevel;temperature;humidity
43115;BME280;28727;50.068;14.452;2023-05-21T00:02:22;99436.13;;;16.11;71.36
43115;BME280;28727;50.068;14.452;2023-05-21T00:04:54;99438.16;;;16.09;71.47
43115;BME280;28727;50.068;14.452;2023-05-21T00:07:26;99421.78;;;16.06;71.39
43115;BME280;28727;50.068;14.452;2023-05-21T00:09:58;99433.03;;;16.01;71.88
43115;BME280;28727;50.068;14.452;2023-05-21T00:12:31;99421.38;;;16.02;71.99
43115;BME280;28727;50.068;14.452;2023-05-21T00:15:04;99421.97;;;16.04;71.82
43115;BME280;28727;50.068;14.452;2023-05-21T00:17:36;99422.97;;;16.03;72.05
43115;BME280;28727;50.068;14.452;2023-05-21T00:20:09;99414.78;;;16.05;71.77
43115;BME280;28727;50.068;14.452;2023-05-21T00:22:41;99418.28;;;15.98;72.09
43115;BME280;28727;50.068;14.452;2023-05-21T00:25:15;99414.97;;;15.96;71.96
43115;BME280;28727;50.068;14.452;2023-05-21T00:27:47;99412.72;;;15.93;72.16
43115;BME280;28727;50.068;14.452;2023-05-21T00:30:20;99411.72;;;15.94;72.43
43115;BME280;28727;50.068;14.452;2023-05-21T00:32:52;99413.34;;;15.95;72.31
43115;BME280;28727;50.068;14.452;2023-05-21T00:35:27;99404.53;;;15.95;72.26
43115;BME280;28727;50.068;14.452;2023-05-21T00:38:00;99405.72;;;15.86;72.52
43115;BME280;28727;50.068;14.452;2023-05-21T00:40:35;99409.63;;;15.83;72.83
43115;BME280;28727;50.068;14.452;2023-05-21T00:43:08;99406.16;;;15.83;72.76
43115;BME280;28727;50.068;14.452;2023-05-21T00:45:45;99412.31;;;15.83;72.65
43115;BME280;28727;50.068;14.452;2023-05-21T00:48:19;99408.59;;;15.78;72.74
43115;BME280;28727;50.068;14.452;2023-05-21T00:50:51;99403.25;;;15.71;72.85
43115;BME280;28727;50.068;14.452;2023-05-21T00:53:24;99399.31;;;15.67;73.48
43115;BME280;28727;50.068;14.452;2023-05-21T00:55:56;99401.56;;;15.64;73.49
43115;BME280;28727;50.068;14.452;2023-05-21T00:58:29;99401.56;;;15.57;73.78
43115;BME280;28727;50.068;14.452;2023-05-21T01:01:01;99398.69;;;15.59;73.67
43115;BME280;28727;50.068;14.452;2023-05-21T01:03:34;99395.56;;;15.48;74.06
43115;BME280;28727;50.068;14.452;2023-05-21T01:06:10;99393.72;;;15.49;74.46
43115;BME280;28727;50.068;14.452;2023-05-21T01:08:46;99389.78;;;15.45;74.64
43115;BME280;28727;50.068;14.452;2023-05-21T01:11:19;99397.59;;;15.46;74.64
43115;BME280;28727;50.068;14.452;2023-05-21T01:13:53;99391.44;;;15.46;74.84
43115;BME280;28727;50.068;14.452;2023-05-21T01:16:25;99387.97;;;15.45;74.73
43115;BME280;28727;50.068;14.452;2023-05-21T01:18:57;99373.00;;;15.44;74.79
43115;BME280;28727;50.068;14.452;2023-05-21T01:21:32;99371.16;;;15.45;74.67
43115;BME280;28727;50.068;14.452;2023-05-21T01:24:10;99373.00;;;15.44;74.59
43115;BME280;28727;50.068;14.452;2023-05-21T01:26:42;99371.34;;;15.43;74.84
43115;BME280;28727;50.068;14.452;2023-05-21T01:29:15;99370.94;;;15.40;75.05
43115;BME280;28727;50.068;14.452;2023-05-21T01:34:36;99375.22;;;15.34;75.42
43115;BME280;28727;50.068;14.452;2023-05-21T01:37:26;99371.75;;;15.34;75.26
43115;BME280;28727;50.068;14.452;2023-05-21T01:40:09;99372.16;;;15.31;75.39
43115;BME280;28727;50.068;14.452;2023-05-21T01:42:44;99372.97;;;15.31;75.33
43115;BME280;28727;50.068;14.452;2023-05-21T01:45:18;99379.09;;;15.32;75.38
43115;BME280;28727;50.068;14.452;2023-05-21T01:47:54;99375.63;;;15.31;75.70
43115;BME280;28727;50.068;14.452;2023-05-21T01:50:28;99382.81;;;15.31;75.51
43115;BME280;28727;50.068;14.452;2023-05-21T01:53:00;99388.13;;;15.31;75.14
43115;BME280;28727;50.068;14.452;2023-05-21T01:55:34;99381.34;;;15.28;75.38
43115;BME280;28727;50.068;14.452;2023-05-21T01:58:10;99376.22;;;15.27;75.48
43115;BME280;28727;50.068;14.452;2023-05-21T02:00:42;99371.91;;;15.26;75.41
43115;BME280;28727;50.068;14.452;2023-05-21T02:03:17;99374.34;;;15.21;75.35
43115;BME280;28727;50.068;14.452;2023-05-21T02:05:50;99378.41;;;15.16;75.59
43115;BME280;28727;50.068;14.452;2023-05-21T02:08:23;99375.13;;;15.14;75.60
43115;BME280;28727;50.068;14.452;2023-05-21T02:10:56;99373.50;;;15.13;75.47
43115;BME280;28727;50.068;14.452;2023-05-21T02:13:28;99367.56;;;15.11;75.76
43115;BME280;28727;50.068;14.452;2023-05-21T02:16:01;99363.25;;;15.10;75.60
43115;BME280;28727;50.068;14.452;2023-05-21T02:18:33;99375.09;;;15.08;75.64
43115;BME280;28727;50.068;14.452;2023-05-21T02:21:07;99372.66;;;15.06;75.82
43115;BME280;28727;50.068;14.452;2023-05-21T02:23:39;99379.75;;;14.99;76.07
43115;BME280;28727;50.068;14.452;2023-05-21T02:26:12;99365.00;;;14.90;76.59
43115;BME280;28727;50.068;14.452;2023-05-21T02:28:45;99374.59;;;14.91;76.70
43115;BME280;28727;50.068;14.452;2023-05-21T02:31:17;99376.84;;;14.88;76.76
43115;BME280;28727;50.068;14.452;2023-05-21T02:33:49;99362.06;;;14.85;77.11
43115;BME280;28727;50.068;14.452;2023-05-21T02:36:21;99368.22;;;14.86;77.01
43115;BME280;28727;50.068;14.452;2023-05-21T02:38:56;99362.72;;;14.87;77.18
43115;BME280;28727;50.068;14.452;2023-05-21T02:41:28;99368.03;;;14.87;77.03
43115;BME280;28727;50.068;14.452;2023-05-21T02:44:00;99369.03;;;14.86;76.92
43115;BME280;28727;50.068;14.452;2023-05-21T02:46:32;99361.25;;;14.85;76.89
43115;BME280;28727;50.068;14.452;2023-05-21T02:49:04;99356.97;;;14.84;77.09
43115;BME280;28727;50.068;14.452;2023-05-21T02:51:37;99362.66;;;14.81;76.88
43115;BME280;28727;50.068;14.452;2023-05-21T02:54:12;99361.84;;;14.80;76.96
43115;BME280;28727;50.068;14.452;2023-05-21T02:56:43;99362.03;;;14.79;76.98
43115;BME280;28727;50.068;14.452;2023-05-21T02:59:19;99352.81;;;14.74;76.83
43115;BME280;28727;50.068;14.452;2023-05-21T03:01:51;99367.94;;;14.74;77.41
43115;BME280;28727;50.068;14.452;2023-05-21T03:04:24;99366.28;;;14.73;77.67
43115;BME280;28727;50.068;14.452;2023-05-21T03:06:59;99361.81;;;14.73;77.59
43115;BME280;28727;50.068;14.452;2023-05-21T03:09:32;99365.50;;;14.72;77.36
43115;BME280;28727;50.068;14.452;2023-05-21T03:12:08;99362.56;;;14.67;77.58
43115;BME280;28727;50.068;14.452;2023-05-21T03:14:40;99365.25;;;14.67;77.94
43115;BME280;28727;50.068;14.452;2023-05-21T03:17:17;99364.03;;;14.70;77.69
43115;BME280;28727;50.068;14.452;2023-05-21T03:19:49;99372.84;;;14.70;77.85
43115;BME280;28727;50.068;14.452;2023-05-21T03:22:22;99359.72;;;14.69;77.51
43115;BME280;28727;50.068;14.452;2023-05-21T03:24:55;99359.91;;;14.67;77.71
43115;BME280;28727;50.068;14.452;2023-05-21T03:27:27;99364.22;;;14.68;77.89
43115;BME280;28727;50.068;14.452;2023-05-21T03:29:59;99359.53;;;14.70;78.11
43115;BME280;28727;50.068;14.452;2023-05-21T03:32:32;99358.72;;;14.70;77.82
43115;BME280;28727;50.068;14.452;2023-05-21T03:35:09;99350.75;;;14.70;77.71
43115;BME280;28727;50.068;14.452;2023-05-21T03:37:41;99356.06;;;14.70;77.66
43115;BME280;28727;50.068;14.452;2023-05-21T03:40:16;99358.53;;;14.71;77.99
43115;BME280;28727;50.068;14.452;2023-05-21T03:42:48;99360.19;;;14.72;77.69
43115;BME280;28727;50.068;14.452;2023-05-21T03:45:20;99363.84;;;14.71;77.73
43115;BME280;28727;50.068;14.452;2023-05-21T03:48:18;99375.09;;;14.73;77.39
43115;BME280;28727;50.068;14.452;2023-05-21T03:50:50;99367.94;;;14.74;77.52
43115;BME280;28727;50.068;14.452;2023-05-21T03:53:23;99365.91;;;14.76;77.41
43115;BME280;28727;50.068;14.452;2023-05-21T03:55:55;99362.03;;;14.79;77.40
43115;BME280;28727;50.068;14.452;2023-05-21T03:58:29;99372.47;;;14.80;77.38
43115;BME280;28727;50.068;14.452;2023-05-21T04:01:02;99363.13;;;14.84;77.50
43115;BME280;28727;50.068;14.452;2023-05-21T04:03:35;99364.16;;;14.90;77.51
43115;BME280;28727;50.068;14.452;2023-05-21T04:06:11;99372.38;;;14.95;77.14
43115;BME280;28727;50.068;14.452;2023-05-21T04:08:44;99370.78;;;15.00;76.87
43115;BME280;28727;50.068;14.452;2023-05-21T04:11:16;99370.19;;;15.05;76.91
43115;BME280;28727;50.068;14.452;2023-05-21T04:13:48;99366.09;;;15.09;77.00
43115;BME280;28727;50.068;14.452;2023-05-21T04:16:21;99370.25;;;15.18;76.77
43115;BME280;28727;50.068;14.452;2023-05-21T04:18:56;99370.88;;;15.27;76.56
43115;BME280;28727;50.068;14.452;2023-05-21T04:21:30;99365.00;;;15.31;76.17
43115;BME280;28727;50.068;14.452;2023-05-21T04:24:03;99372.41;;;15.42;75.94
43115;BME280;28727;50.068;14.452;2023-05-21T04:26:53;99367.34;;;15.54;75.61
43115;BME280;28727;50.068;14.452;2023-05-21T04:29:27;99373.50;;;15.68;75.50
43115;BME280;28727;50.068;14.452;2023-05-21T04:32:01;99376.22;;;15.81;74.84
43115;BME280;28727;50.068;14.452;2023-05-21T04:34:33;99377.91;;;15.95;74.30
43115;BME280;28727;50.068;14.452;2023-05-21T04:37:05;99375.44;;;16.07;73.78
43115;BME280;28727;50.068;14.452;2023-05-21T04:39:37;99377.91;;;16.21;73.52
43115;BME280;28727;50.068;14.452;2023-05-21T04:42:12;99374.44;;;16.34;73.20
43115;BME280;28727;50.068;14.452;2023-05-21T04:44:45;99377.09;;;16.47;72.85
43115;BME280;28727;50.068;14.452;2023-05-21T04:47:17;99380.41;;;16.62;72.36
43115;BME280;28727;50.068;14.452;2023-05-21T04:49:51;99382.84;;;16.77;71.97
43115;BME280;28727;50.068;14.452;2023-05-21T04:52:25;99387.75;;;16.87;71.53
43115;BME280;28727;50.068;14.452;2023-05-21T04:54:57;99382.22;;;16.82;71.64
43115;BME280;28727;50.068;14.452;2023-05-21T04:57:29;99377.69;;;16.89;71.78
43115;BME280;28727;50.068;14.452;2023-05-21T05:00:03;99374.56;;;17.11;71.64
43115;BME280;28727;50.068;14.452;2023-05-21T05:02:41;99378.00;;;17.32;70.91
43115;BME280;28727;50.068;14.452;2023-05-21T05:05:16;99374.22;;;17.46;70.22
43115;BME280;28727;50.068;14.452;2023-05-21T05:07:48;99373.75;;;17.62;69.66
43115;BME280;28727;50.068;14.452;2023-05-21T05:10:20;99371.16;;;17.87;69.26
43115;BME280;28727;50.068;14.452;2023-05-21T05:12:53;99370.22;;;18.06;68.48
43115;BME280;28727;50.068;14.452;2023-05-21T05:15:25;99373.31;;;18.28;67.56
43115;BME280;28727;50.068;14.452;2023-05-21T05:17:57;99377.69;;;18.47;67.05
43115;BME280;28727;50.068;14.452;2023-05-21T05:20:32;99380.16;;;18.73;66.46
43115;BME280;28727;50.068;14.452;2023-05-21T05:23:04;99379.75;;;18.95;65.18
43115;BME280;28727;50.068;14.452;2023-05-21T05:25:36;99373.78;;;18.93;64.81
43115;BME280;28727;50.068;14.452;2023-05-21T05:28:09;99371.50;;;18.96;64.50
43115;BME280;28727;50.068;14.452;2023-05-21T05:30:41;99373.28;;;19.02;64.29
43115;BME280;28727;50.068;14.452;2023-05-21T05:33:23;99377.66;;;19.15;63.58
43115;BME280;28727;50.068;14.452;2023-05-21T05:35:55;99375.31;;;19.07;63.91
43115;BME280;28727;50.068;14.452;2023-05-21T05:38:27;99376.56;;;19.22;63.69
43115;BME280;28727;50.068;14.452;2023-05-21T05:40:59;99369.63;;;19.51;63.00
43115;BME280;28727;50.068;14.452;2023-05-21T05:43:34;99367.69;;;19.88;62.23
43115;BME280;28727;50.068;14.452;2023-05-21T05:46:07;99356.81;;;20.13;61.36
43115;BME280;28727;50.068;14.452;2023-05-21T05:48:39;99361.03;;;20.32;60.40
43115;BME280;28727;50.068;14.452;2023-05-21T05:51:12;99361.53;;;20.53;59.78
43115;BME280;28727;50.068;14.452;2023-05-21T05:53:46;99357.22;;;20.75;59.43
43115;BME280;28727;50.068;14.452;2023-05-21T05:56:21;99356.72;;;21.01;58.39
43115;BME280;28727;50.068;14.452;2023-05-21T05:58:53;99348.03;;;21.34;57.52
43115;BME280;28727;50.068;14.452;2023-05-21T06:01:25;99360.66;;;21.62;55.47
43115;BME280;28727;50.068;14.452;2023-05-21T06:03:57;99349.34;;;21.60;55.86
43115;BME280;28727;50.068;14.452;2023-05-21T06:06:34;99348.75;;;21.58;56.25
43115;BME280;28727;50.068;14.452;2023-05-21T06:09:07;99342.22;;;21.82;55.90
43115;BME280;28727;50.068;14.452;2023-05-21T06:11:39;99343.53;;;22.25;55.61
43115;BME280;28727;50.068;14.452;2023-05-21T06:14:14;99352.00;;;22.50;53.42
43115;BME280;28727;50.068;14.452;2023-05-21T06:16:46;99359.41;;;22.60;53.37
43115;BME280;28727;50.068;14.452;2023-05-21T06:19:18;99358.59;;;22.76;53.31
43115;BME280;28727;50.068;14.452;2023-05-21T06:21:53;99349.56;;;23.04;52.97
43115;BME280;28727;50.068;14.452;2023-05-21T06:24:25;99348.72;;;23.03;51.71
43115;BME280;28727;50.068;14.452;2023-05-21T06:26:57;99344.91;;;22.99;52.12
43115;BME280;28727;50.068;14.452;2023-05-21T06:29:30;99352.94;;;23.16;51.17
43115;BME280;28727;50.068;14.452;2023-05-21T06:32:07;99351.19;;;23.05;50.97
43115;BME280;28727;50.068;14.452;2023-05-21T06:34:40;99344.13;;;23.20;51.15
43115;BME280;28727;50.068;14.452;2023-05-21T06:37:11;99342.56;;;23.03;50.96
43115;BME280;28727;50.068;14.452;2023-05-21T06:39:44;99343.50;;;23.13;51.04
43115;BME280;28727;50.068;14.452;2023-05-21T06:42:16;99337.31;;;23.40;51.09
43115;BME280;28727;50.068;14.452;2023-05-21T06:45:18;99342.97;;;23.87;49.82
43115;BME280;28727;50.068;14.452;2023-05-21T06:47:50;99337.22;;;24.05;49.46
43115;BME280;28727;50.068;14.452;2023-05-21T06:50:22;99333.06;;;24.19;49.08
43115;BME280;28727;50.068;14.452;2023-05-21T06:52:54;99331.84;;;24.10;48.50
43115;BME280;28727;50.068;14.452;2023-05-21T06:55:26;99335.91;;;24.07;48.52
43115;BME280;28727;50.068;14.452;2023-05-21T06:58:17;99338.06;;;24.37;48.25
43115;BME280;28727;50.068;14.452;2023-05-21T07:00:50;99337.19;;;24.69;47.87
43115;BME280;28727;50.068;14.452;2023-05-21T07:03:22;99336.72;;;24.82;47.13
43115;BME280;28727;50.068;14.452;2023-05-21T07:05:57;99343.44;;;24.74;47.31
43115;BME280;28727;50.068;14.452;2023-05-21T07:08:29;99336.28;;;24.53;47.26
43115;BME280;28727;50.068;14.452;2023-05-21T07:11:02;99344.59;;;24.46;47.35
43115;BME280;28727;50.068;14.452;2023-05-21T07:13:35;99338.91;;;24.43;47.40
43115;BME280;28727;50.068;14.452;2023-05-21T07:16:12;99345.28;;;24.69;46.73
43115;BME280;28727;50.068;14.452;2023-05-21T07:18:44;99347.34;;;24.94;46.62
43115;BME280;28727;50.068;14.452;2023-05-21T07:21:18;99344.00;;;24.81;46.84
43115;BME280;28727;50.068;14.452;2023-05-21T07:23:51;99334.66;;;24.94;46.51
43115;BME280;28727;50.068;14.452;2023-05-21T07:26:24;99341.59;;;25.27;46.02
43115;BME280;28727;50.068;14.452;2023-05-21T07:28:57;99330.56;;;25.54;45.54
43115;BME280;28727;50.068;14.452;2023-05-21T07:32:10;99335.19;;;25.58;45.32
43115;BME280;28727;50.068;14.452;2023-05-21T07:35:04;99332.84;;;26.07;44.78
43115;BME280;28727;50.068;14.452;2023-05-21T07:37:40;99339.09;;;26.23;44.11
43115;BME280;28727;50.068;14.452;2023-05-21T07:40:13;99330.94;;;25.98;44.27
43115;BME280;28727;50.068;14.452;2023-05-21T07:42:46;99338.81;;;26.15;44.82
43115;BME280;28727;50.068;14.452;2023-05-21T07:45:22;99324.44;;;26.55;43.91
43115;BME280;28727;50.068;14.452;2023-05-21T07:47:54;99321.09;;;26.98;41.73
43115;BME280;28727;50.068;14.452;2023-05-21T07:50:31;99325.00;;;26.62;43.21
43115;BME280;28727;50.068;14.452;2023-05-21T07:53:03;99323.34;;;26.66;43.24
43115;BME280;28727;50.068;14.452;2023-05-21T07:55:36;99318.72;;;26.71;43.16
43115;BME280;28727;50.068;14.452;2023-05-21T07:58:09;99324.13;;;26.81;42.88
43115;BME280;28727;50.068;14.452;2023-05-21T08:00:45;99317.09;;;26.75;42.99
43115;BME280;28727;50.068;14.452;2023-05-21T08:03:18;99320.59;;;26.86;42.78
43115;BME280;28727;50.068;14.452;2023-05-21T08:05:52;99324.25;;;27.30;42.53
43115;BME280;28727;50.068;14.452;2023-05-21T08:08:25;99327.94;;;27.55;41.95
43115;BME280;28727;50.068;14.452;2023-05-21T08:10:59;99314.56;;;27.68;41.28
43115;BME280;28727;50.068;14.452;2023-05-21T08:13:33;99319.22;;;27.58;41.41
43115;BME280;28727;50.068;14.452;2023-05-21T08:16:07;99320.63;;;27.45;41.71
43115;BME280;28727;50.068;14.452;2023-05-21T08:18:39;99326.59;;;27.52;42.13
43115;BME280;28727;50.068;14.452;2023-05-21T08:21:12;99315.97;;;27.61;41.29
43115;BME280;28727;50.068;14.452;2023-05-21T08:23:43;99316.41;;;27.78;41.90
43115;BME280;28727;50.068;14.452;2023-05-21T08:26:20;99314.88;;;27.62;41.65
43115;BME280;28727;50.068;14.452;2023-05-21T08:28:52;99317.88;;;27.60;41.55
43115;BME280;28727;50.068;14.452;2023-05-21T08:31:24;99306.06;;;27.80;41.21
43115;BME280;28727;50.068;14.452;2023-05-21T08:33:58;99299.69;;;27.61;41.78
43115;BME280;28727;50.068;14.452;2023-05-21T08:36:47;99307.13;;;27.35;43.37
43115;BME280;28727;50.068;14.452;2023-05-21T08:39:46;99297.06;;;27.85;41.54
43115;BME280;28727;50.068;14.452;2023-05-21T08:45:21;99296.00;;;28.48;39.99
43115;BME280;28727;50.068;14.452;2023-05-21T08:47:55;99303.44;;;28.38;40.29
43115;BME280;28727;50.068;14.452;2023-05-21T08:50:30;99296.34;;;28.13;39.69
43115;BME280;28727;50.068;14.452;2023-05-21T08:53:08;99296.00;;;27.81;41.44
43115;BME280;28727;50.068;14.452;2023-05-21T08:56:00;99297.13;;;27.80;41.09
43115;BME280;28727;50.068;14.452;2023-05-21T08:58:51;99295.13;;;27.90;41.23
43115;BME280;28727;50.068;14.452;2023-05-21T09:01:26;99287.47;;;27.97;40.93
43115;BME280;28727;50.068;14.452;2023-05-21T09:04:09;99287.94;;;28.04;40.13
43115;BME280;28727;50.068;14.452;2023-05-21T09:06:50;99294.94;;;28.10;40.03
43115;BME280;28727;50.068;14.452;2023-05-21T09:09:43;99291.31;;;27.91;39.91
43115;BME280;28727;50.068;14.452;2023-05-21T09:12:18;99293.28;;;27.86;40.66
43115;BME280;28727;50.068;14.452;2023-05-21T09:14:50;99292.00;;;27.73;40.71
43115;BME280;28727;50.068;14.452;2023-05-21T09:17:31;99289.47;;;27.82;41.16
43115;BME280;28727;50.068;14.452;2023-05-21T09:20:15;99283.72;;;28.22;40.38
43115;BME280;28727;50.068;14.452;2023-05-21T09:23:03;99286.38;;;28.32;39.31
43115;BME280;28727;50.068;14.452;2023-05-21T09:25:36;99290.91;;;28.13;40.11
43115;BME280;28727;50.068;14.452;2023-05-21T09:28:15;99289.25;;;28.12;39.69
43115;BME280;28727;50.068;14.452;2023-05-21T09:30:53;99292.19;;;28.49;39.42
43115;BME280;28727;50.068;14.452;2023-05-21T09:33:26;99285.09;;;28.77;38.14
43115;BME280;28727;50.068;14.452;2023-05-21T09:36:00;99289.28;;;28.65;38.42
43115;BME280;28727;50.068;14.452;2023-05-21T09:38:33;99285.19;;;28.67;38.22
43115;BME280;28727;50.068;14.452;2023-05-21T09:41:09;99277.63;;;28.88;38.32
43115;BME280;28727;50.068;14.452;2023-05-21T09:43:43;99286.28;;;28.66;38.35
43115;BME280;28727;50.068;14.452;2023-05-21T09:46:39;99282.53;;;28.38;38.25
43115;BME280;28727;50.068;14.452;2023-05-21T09:49:22;99288.75;;;28.39;39.08
43115;BME280;28727;50.068;14.452;2023-05-21T09:51:56;99273.22;;;28.44;39.16
43115;BME280;28727;50.068;14.452;2023-05-21T09:54:33;99277.69;;;28.83;38.24
43115;BME280;28727;50.068;14.452;2023-05-21T09:57:05;99275.91;;;28.97;38.24
43115;BME280;28727;50.068;14.452;2023-05-21T09:59:37;99273.53;;;28.90;37.39
43115;BME280;28727;50.068;14.452;2023-05-21T10:02:22;99275.09;;;28.97;37.99
43115;BME280;28727;50.068;14.452;2023-05-21T10:04:55;99275.16;;;28.92;37.29
43115;BME280;28727;50.068;14.452;2023-05-21T10:07:28;99272.84;;;28.80;36.92
43115;BME280;28727;50.068;14.452;2023-05-21T10:10:12;99280.47;;;29.02;37.74
43115;BME280;28727;50.068;14.452;2023-05-21T10:12:46;99275.16;;;28.92;37.32
43115;BME280;28727;50.068;14.452;2023-05-21T10:15:23;99268.19;;;29.04;37.07
43115;BME280;28727;50.068;14.452;2023-05-21T10:17:55;99260.75;;;29.34;37.08
43115;BME280;28727;50.068;14.452;2023-05-21T10:20:28;99273.81;;;29.69;35.92
43115;BME280;28727;50.068;14.452;2023-05-21T10:23:01;99264.00;;;29.54;36.03
43115;BME280;28727;50.068;14.452;2023-05-21T10:25:57;99263.47;;;29.52;35.33
43115;BME280;28727;50.068;14.452;2023-05-21T10:28:35;99249.56;;;29.35;34.60
43115;BME280;28727;50.068;14.452;2023-05-21T10:31:08;99248.91;;;29.43;35.52
43115;BME280;28727;50.068;14.452;2023-05-21T10:33:42;99237.56;;;29.55;35.91
43115;BME280;28727;50.068;14.452;2023-05-21T10:36:16;99246.75;;;29.78;35.13
43115;BME280;28727;50.068;14.452;2023-05-21T10:38:49;99245.81;;;29.68;35.55
43115;BME280;28727;50.068;14.452;2023-05-21T10:41:22;99243.00;;;29.74;35.56
43115;BME280;28727;50.068;14.452;2023-05-21T10:44:14;99235.78;;;29.64;35.10
43115;BME280;28727;50.068;14.452;2023-05-21T10:47:11;99248.09;;;29.43;34.68
43115;BME280;28727;50.068;14.452;2023-05-21T10:50:02;99239.00;;;29.28;35.61
43115;BME280;28727;50.068;14.452;2023-05-21T10:52:51;99238.41;;;28.94;35.86
43115;BME280;28727;50.068;14.452;2023-05-21T11:01:01;99226.59;;;29.60;35.24
43115;BME280;28727;50.068;14.452;2023-05-21T11:03:36;99232.84;;;29.79;35.77
43115;BME280;28727;50.068;14.452;2023-05-21T11:06:11;99235.66;;;29.88;35.21
43115;BME280;28727;50.068;14.452;2023-05-21T11:08:53;99229.72;;;29.86;35.32
43115;BME280;28727;50.068;14.452;2023-05-21T11:11:49;99233.25;;;29.86;34.48
43115;BME280;28727;50.068;14.452;2023-05-21T11:14:34;99234.69;;;29.46;34.83
43115;BME280;28727;50.068;14.452;2023-05-21T11:19:48;99223.00;;;29.46;35.57
43115;BME280;28727;50.068;14.452;2023-05-21T11:22:23;99234.56;;;29.38;34.92
43115;BME280;28727;50.068;14.452;2023-05-21T11:25:00;99235.56;;;29.23;35.24
43115;BME280;28727;50.068;14.452;2023-05-21T11:30:08;99237.28;;;28.47;36.24
43115;BME280;28727;50.068;14.452;2023-05-21T11:35:37;99229.13;;;28.24;37.42
43115;BME280;28727;50.068;14.452;2023-05-21T11:38:31;99237.75;;;28.31;37.14
43115;BME280;28727;50.068;14.452;2023-05-21T11:41:04;99223.63;;;28.29;37.02
43115;BME280;28727;50.068;14.452;2023-05-21T11:43:39;99225.28;;;27.96;37.44
43115;BME280;28727;50.068;14.452;2023-05-21T11:46:10;99218.84;;;28.21;37.54
43115;BME280;28727;50.068;14.452;2023-05-21T11:48:42;99222.47;;;28.59;37.29
43115;BME280;28727;50.068;14.452;2023-05-21T11:51:15;99204.72;;;28.66;37.00
43115;BME280;28727;50.068;14.452;2023-05-21T11:53:46;99200.03;;;28.72;36.35
43115;BME280;28727;50.068;14.452;2023-05-21T11:56:19;99209.63;;;28.64;36.43
43115;BME280;28727;50.068;14.452;2023-05-21T11:58:52;99202.88;;;28.62;36.64
43115;BME280;28727;50.068;14.452;2023-05-21T12:01:25;99199.81;;;28.68;33.63
43115;BME280;28727;50.068;14.452;2023-05-21T12:03:58;99199.84;;;28.87;34.94
43115;BME280;28727;50.068;14.452;2023-05-21T12:06:34;99217.03;;;28.59;35.71
43115;BME280;28727;50.068;14.452;2023-05-21T12:09:05;99202.97;;;28.28;35.48
43115;BME280;28727;50.068;14.452;2023-05-21T12:11:37;99208.34;;;28.04;35.78
43115;BME280;28727;50.068;14.452;2023-05-21T12:14:12;99203.72;;;28.04;35.93
43115;BME280;28727;50.068;14.452;2023-05-21T12:16:44;99205.34;;;28.05;36.52
43115;BME280;28727;50.068;14.452;2023-05-21T12:19:16;99202.75;;;28.24;35.78
43115;BME280;28727;50.068;14.452;2023-05-21T12:21:49;99189.78;;;28.45;35.74
43115;BME280;28727;50.068;14.452;2023-05-21T12:24:23;99192.81;;;28.62;35.09
43115;BME280;28727;50.068;14.452;2023-05-21T12:26:56;99184.94;;;28.61;34.41
43115;BME280;28727;50.068;14.452;2023-05-21T12:29:32;99194.16;;;28.41;34.04
43115;BME280;28727;50.068;14.452;2023-05-21T12:32:05;99182.47;;;28.11;34.58
43115;BME280;28727;50.068;14.452;2023-05-21T12:34:44;99187.66;;;27.84;35.30
43115;BME280;28727;50.068;14.452;2023-05-21T12:37:21;99179.13;;;27.67;35.58
43115;BME280;28727;50.068;14.452;2023-05-21T12:39:54;99183.53;;;27.58;36.06
43115;BME280;28727;50.068;14.452;2023-05-21T12:42:29;99188.19;;;27.52;35.76
43115;BME280;28727;50.068;14.452;2023-05-21T12:45:05;99186.56;;;27.51;35.48
43115;BME280;28727;50.068;14.452;2023-05-21T12:47:40;99181.63;;;27.58;34.73
43115;BME280;28727;50.068;14.452;2023-05-21T12:50:18;99176.53;;;27.47;34.75
43115;BME280;28727;50.068;14.452;2023-05-21T12:52:54;99172.34;;;27.64;34.18
43115;BME280;28727;50.068;14.452;2023-05-21T12:55:26;99163.22;;;27.84;34.54
43115;BME280;28727;50.068;14.452;2023-05-21T12:58:02;99173.09;;;27.99;33.55
43115;BME280;28727;50.068;14.452;2023-05-21T13:00:40;99168.41;;;28.09;33.58
43115;BME280;28727;50.068;14.452;2023-05-21T13:03:12;99159.88;;;28.21;32.44
43115;BME280;28727;50.068;14.452;2023-05-21T13:05:47;99157.59;;;28.28;31.74
43115;BME280;28727;50.068;14.452;2023-05-21T13:08:19;99162.81;;;28.25;32.13
43115;BME280;28727;50.068;14.452;2023-05-21T13:10:51;99165.75;;;28.28;31.87
43115;BME280;28727;50.068;14.452;2023-05-21T13:13:23;99175.44;;;28.16;29.86
43115;BME280;28727;50.068;14.452;2023-05-21T13:15:55;99166.25;;;28.06;29.38
43115;BME280;28727;50.068;14.452;2023-05-21T13:18:27;99168.69;;;28.08;29.25
43115;BME280;28727;50.068;14.452;2023-05-21T13:21:00;99158.31;;;28.15;28.80
43115;BME280;28727;50.068;14.452;2023-05-21T13:23:31;99152.50;;;28.22;28.82
43115;BME280;28727;50.068;14.452;2023-05-21T13:26:03;99152.16;;;28.28;29.60
43115;BME280;28727;50.068;14.452;2023-05-21T13:28:35;99142.56;;;28.36;29.37
43115;BME280;28727;50.068;14.452;2023-05-21T13:31:07;99154.44;;;28.45;29.16
43115;BME280;28727;50.068;14.452;2023-05-21T13:33:41;99145.91;;;28.51;28.81
43115;BME280;28727;50.068;14.452;2023-05-21T13:36:15;99145.91;;;28.51;28.95
43115;BME280;28727;50.068;14.452;2023-05-21T13:38:47;99142.09;;;28.52;29.00
43115;BME280;28727;50.068;14.452;2023-05-21T13:41:21;99155.41;;;28.54;31.15
43115;BME280;28727;50.068;14.452;2023-05-21T13:43:53;99138.47;;;28.38;31.76
43115;BME280;28727;50.068;14.452;2023-05-21T13:46:25;99137.84;;;28.23;31.84
43115;BME280;28727;50.068;14.452;2023-05-21T13:48:57;99138.38;;;28.25;32.48
43115;BME280;28727;50.068;14.452;2023-05-21T13:51:29;99135.78;;;28.15;32.20